Time;durP1;ratioP1;P1;durP2;ratioP2;P2;SDS_P1;SDS_P2;PMS_P1;PMS_P2;Temp;Humidity;BMP_temperature;BMP_pressure;BME280_temperature;BME280_humidity;BME280_pressure;Samples;Min_cycle;Max_cycle;Signal;HPM_P1;HPM_P2
2022/05/26 00:01:19;;;;;;;8.88;3.00;;;12.80;99.90;;;;;;5092162;28;20093;-73
2022/05/26 00:03:47;;;;;;;13.45;3.88;;;12.80;99.90;;;;;;5075488;28;20063;-73
2022/05/26 00:06:16;;;;;;;12.63;3.97;;;12.80;99.90;;;;;;5092315;28;20040;-73
2022/05/26 00:08:42;;;;;;;15.40;4.18;;;12.80;99.90;;;;;;5059010;28;20044;-74
2022/05/26 00:11:15;;;;;;;13.45;3.90;;;12.80;99.90;;;;;;5092993;28;20047;-73
2022/05/26 00:13:42;;;;;;;13.15;3.65;;;12.70;99.90;;;;;;5075620;28;20047;-72
2022/05/26 00:16:10;;;;;;;9.23;3.03;;;12.70;99.90;;;;;;5092613;28;20138;-73
2022/05/26 00:18:37;;;;;;;9.40;3.50;;;12.70;99.90;;;;;;5093192;28;20438;-73
2022/05/26 00:21:04;;;;;;;16.98;3.58;;;12.70;99.90;;;;;;5092795;28;20036;-72
2022/05/26 00:23:31;;;;;;;10.75;3.40;;;12.60;99.90;;;;;;5092273;28;20047;-73
2022/05/26 00:25:58;;;;;;;11.90;4.00;;;12.60;99.90;;;;;;5091867;28;20498;-73
2022/05/26 00:28:25;;;;;;;9.63;3.50;;;12.60;99.90;;;;;;5091936;28;20046;-73
2022/05/26 00:30:53;;;;;;;21.85;4.43;;;12.60;99.90;;;;;;5093059;28;20044;-73
2022/05/26 00:33:20;;;;;;;13.30;3.40;;;12.60;99.90;;;;;;5092129;28;20040;-74
2022/05/26 00:35:47;;;;;;;10.43;3.05;;;12.60;99.90;;;;;;5076243;28;20044;-77
2022/05/26 00:38:14;;;;;;;19.05;4.20;;;12.60;99.90;;;;;;5091837;28;20059;-72
2022/05/26 00:40:41;;;;;;;16.23;4.22;;;12.60;99.90;;;;;;5058557;28;20051;-72
2022/05/26 00:43:08;;;;;;;14.68;4.18;;;12.50;99.90;;;;;;5096449;28;20370;-72
2022/05/26 00:45:39;;;;;;;10.30;3.35;;;12.60;99.90;;;;;;5097925;28;20455;-73
2022/05/26 00:48:09;;;;;;;11.32;3.20;;;12.50;99.90;;;;;;5080507;28;20044;-73
2022/05/26 00:50:42;;;;;;;16.80;4.35;;;12.50;99.90;;;;;;5096020;28;20070;-73
2022/05/26 00:53:23;;;;;;;14.32;3.88;;;12.50;99.90;;;;;;5080072;28;20051;-73
2022/05/26 00:55:55;;;;;;;11.15;4.28;;;12.50;99.90;;;;;;5096417;28;20044;-73
2022/05/26 00:58:28;;;;;;;11.02;3.38;;;12.40;99.90;;;;;;5096338;28;20040;-73
2022/05/26 01:00:57;;;;;;;11.95;3.67;;;12.40;99.90;;;;;;5080301;28;20061;-73
2022/05/26 01:03:30;;;;;;;;;;;12.40;99.90;;;;;;5098086;28;20042;-73
2022/05/26 01:06:02;;;;;;;18.40;3.92;;;12.40;99.90;;;;;;5096813;28;20114;-73
2022/05/26 01:08:37;;;;;;;12.85;4.13;;;12.40;99.90;;;;;;5078631;28;20044;-73
2022/05/26 01:11:04;;;;;;;14.20;3.97;;;12.30;99.90;;;;;;5079671;28;20046;-73
2022/05/26 01:13:31;;;;;;;25.40;5.25;;;12.30;99.90;;;;;;5095467;28;20048;-73
2022/05/26 01:16:05;;;;;;;14.82;4.25;;;12.30;99.90;;;;;;5078307;28;20080;-73
2022/05/26 01:18:51;;;;;;;15.85;4.93;;;12.30;99.90;;;;;;5063285;28;20040;-73
2022/05/26 01:21:21;;;;;;;19.35;4.70;;;12.30;99.90;;;;;;5096150;28;20058;-72
2022/05/26 01:24:12;;;;;;;10.63;4.18;;;12.30;99.90;;;;;;5079487;28;20040;-72
2022/05/26 01:27:06;;;;;;;14.52;4.32;;;12.30;99.90;;;;;;5079789;28;20040;-73
2022/05/26 01:29:51;;;;;;;12.43;3.60;;;12.20;99.90;;;;;;5095777;28;20040;-73
2022/05/26 01:32:27;;;;;;;12.70;4.18;;;12.20;99.90;;;;;;5096898;28;20044;-73
2022/05/26 01:35:09;;;;;;;10.55;3.70;;;12.20;99.90;;;;;;5096123;28;20040;-73
2022/05/26 01:37:58;;;;;;;12.40;4.25;;;12.20;99.90;;;;;;5079156;28;20044;-73
2022/05/26 01:40:27;;;;;;;11.67;4.23;;;12.10;99.90;;;;;;5096204;28;20048;-72
2022/05/26 01:43:13;;;;;;;;;;;12.10;99.90;;;;;;5095299;28;20060;-73
2022/05/26 01:45:51;;;;;;;13.90;4.03;;;12.10;99.90;;;;;;5095461;28;19938;-73
2022/05/26 01:49:00;;;;;;;16.13;4.32;;;12.00;99.90;;;;;;5079431;28;20059;-73
2022/05/26 01:51:31;;;;;;;17.42;3.80;;;12.00;99.90;;;;;;5083734;28;20052;-73
2022/05/26 01:54:16;;;;;;;12.32;3.47;;;12.00;99.90;;;;;;5094243;28;20131;-73
2022/05/26 01:56:55;;;;;;;11.75;3.55;;;12.00;99.90;;;;;;5095960;28;20487;-73
2022/05/26 01:59:28;;;;;;;13.05;3.85;;;12.00;99.90;;;;;;5078881;28;20051;-73
2022/05/26 02:02:03;;;;;;;11.77;3.78;;;12.00;99.90;;;;;;5078780;28;20093;-73
2022/05/26 02:04:35;;;;;;;14.07;3.97;;;11.90;99.90;;;;;;5062594;28;20364;-73
2022/05/26 02:07:06;;;;;;;8.07;3.17;;;11.90;99.90;;;;;;5078281;28;20051;-73
2022/05/26 02:09:38;;;;;;;12.27;3.78;;;11.90;99.90;;;;;;5061662;28;20379;-73
2022/05/26 02:12:11;;;;;;;10.68;3.53;;;11.90;99.90;;;;;;5095333;28;20371;-73
2022/05/26 02:14:45;;;;;;;9.40;3.60;;;11.90;99.90;;;;;;5078127;28;20040;-73
2022/05/26 02:17:46;;;;;;;12.55;4.07;;;11.80;99.90;;;;;;5077544;28;20139;-73
2022/05/26 02:20:19;;;;;;;8.88;3.85;;;11.80;99.90;;;;;;5083212;28;20058;-73
2022/05/26 02:22:50;;;;;;;8.85;3.00;;;11.80;99.90;;;;;;5077815;28;20484;-73
2022/05/26 02:25:19;;;;;;;11.27;3.45;;;11.70;99.90;;;;;;5077930;28;20456;-73
2022/05/26 02:27:47;;;;;;;13.93;3.83;;;11.70;99.90;;;;;;5061495;28;20044;-73
2022/05/26 02:30:14;;;;;;;14.13;3.03;;;11.70;99.90;;;;;;5077507;28;20047;-73
2022/05/26 02:32:48;;;;;;;14.75;4.53;;;11.70;99.90;;;;;;5093950;28;20040;-73
2022/05/26 02:35:17;;;;;;;9.25;3.17;;;11.70;99.90;;;;;;5060629;28;20473;-73
2022/05/26 02:37:47;;;;;;;9.15;3.55;;;11.70;99.90;;;;;;5078225;28;20054;-72
2022/05/26 02:40:14;;;;;;;;;;;11.70;99.90;;;;;;5078742;28;20347;-72
2022/05/26 02:42:47;;;;;;;11.98;4.18;;;11.70;99.90;;;;;;5076598;28;19916;-73
2022/05/26 02:45:15;;;;;;;10.30;3.15;;;11.60;99.90;;;;;;5094724;28;20040;-75
2022/05/26 02:48:07;;;;;;;13.35;4.32;;;11.60;99.90;;;;;;5060480;28;20071;-75
2022/05/26 02:50:55;;;;;;;12.18;3.55;;;11.60;99.90;;;;;;5094857;28;20130;-72
2022/05/26 02:53:31;;;;;;;13.35;3.50;;;11.60;99.90;;;;;;5094868;28;20412;-75
2022/05/26 02:56:01;;;;;;;12.65;3.25;;;11.60;99.90;;;;;;5078006;28;20063;-75
2022/05/26 02:58:46;;;;;;;;;;;11.60;99.90;;;;;;5095701;28;20040;-74
2022/05/26 03:01:40;;;;;;;12.43;3.40;;;11.60;99.90;;;;;;5094958;28;19916;-75
2022/05/26 03:04:14;;;;;;;8.00;3.20;;;11.60;99.90;;;;;;5079792;28;20039;-74
2022/05/26 03:06:52;;;;;;;13.23;3.70;;;11.50;99.90;;;;;;5077779;28;20040;-74
2022/05/26 03:09:19;;;;;;;15.30;4.18;;;11.60;99.90;;;;;;5093054;28;20062;-74
2022/05/26 03:11:57;;;;;;;13.02;4.07;;;11.60;99.90;;;;;;5093211;28;20502;-74
2022/05/26 03:14:24;;;;;;;15.25;4.47;;;11.60;99.90;;;;;;5076434;28;20048;-74
2022/05/26 03:16:51;;;;;;;9.70;3.60;;;11.60;99.90;;;;;;5093213;28;20054;-74
2022/05/26 03:19:18;;;;;;;12.77;3.92;;;11.50;99.90;;;;;;5076193;28;20048;-74
2022/05/26 03:21:45;;;;;;;10.93;3.20;;;11.60;99.90;;;;;;5076661;28;20113;-74
2022/05/26 03:24:12;;;;;;;13.55;4.72;;;11.50;99.90;;;;;;5093009;28;20476;-74
2022/05/26 03:26:39;;;;;;;10.32;3.70;;;11.50;99.90;;;;;;5092605;28;20066;-74
2022/05/26 03:29:06;;;;;;;12.10;3.70;;;11.50;99.90;;;;;;5092934;28;20047;-74
2022/05/26 03:31:33;;;;;;;10.30;3.38;;;11.50;99.90;;;;;;5059717;28;20043;-74
2022/05/26 03:42:17;;;;;;;10.48;3.72;;;11.50;99.90;;;;;;5093777;28;20048;-74
2022/05/26 03:44:45;;;;;;;19.80;4.45;;;11.50;99.90;;;;;;5059153;28;20390;-74
2022/05/26 03:47:12;;;;;;;14.10;3.78;;;11.50;99.90;;;;;;5092260;28;20051;-74
2022/05/26 03:49:39;;;;;;;11.82;4.13;;;11.50;99.90;;;;;;5075628;28;20048;-74
2022/05/26 03:52:07;;;;;;;12.35;3.55;;;11.50;99.90;;;;;;5092453;28;20048;-74
2022/05/26 03:54:33;;;;;;;9.32;3.67;;;11.50;99.90;;;;;;5059810;28;20054;-74
2022/05/26 03:57:00;;;;;;;13.40;3.38;;;11.50;99.90;;;;;;5093403;28;20043;-75
2022/05/26 03:59:27;;;;;;;11.70;3.88;;;11.50;99.90;;;;;;5092386;28;20039;-74
2022/05/26 04:01:54;;;;;;;11.35;3.85;;;11.50;99.90;;;;;;5092601;28;20040;-74
2022/05/26 04:04:21;;;;;;;12.68;4.00;;;11.50;99.90;;;;;;5092441;28;20044;-74
2022/05/26 04:06:48;;;;;;;10.00;3.80;;;11.50;99.90;;;;;;5093503;28;20051;-74
2022/05/26 04:09:16;;;;;;;13.05;4.28;;;11.50;99.90;;;;;;5092977;28;20412;-74
2022/05/26 04:11:43;;;;;;;12.38;4.72;;;11.50;99.90;;;;;;5093617;28;20040;-72
2022/05/26 04:14:10;;;;;;;10.68;3.33;;;11.50;99.90;;;;;;5092398;28;20081;-72
2022/05/26 04:16:36;;;;;;;9.45;3.47;;;11.50;99.90;;;;;;5093248;28;20486;-74
2022/05/26 04:19:04;;;;;;;10.15;3.05;;;11.50;99.90;;;;;;5096577;28;20040;-72
2022/05/26 04:21:30;;;;;;;12.63;3.28;;;11.50;99.90;;;;;;5097488;28;20459;-72
2022/05/26 04:23:57;;;;;;;14.95;4.00;;;11.50;99.90;;;;;;5080012;28;20127;-72
2022/05/26 04:26:24;;;;;;;10.88;4.53;;;11.60;99.90;;;;;;5097930;28;20044;-72
2022/05/26 04:28:51;;;;;;;13.45;4.35;;;11.60;99.90;;;;;;5096362;28;20143;-72
2022/05/26 04:31:18;;;;;;;8.30;3.67;;;11.60;99.90;;;;;;5097710;28;20040;-72
2022/05/26 04:33:45;;;;;;;9.45;4.60;;;11.60;99.90;;;;;;5098849;28;20082;-72
2022/05/26 04:36:12;;;;;;;11.57;3.75;;;11.60;99.90;;;;;;5099588;28;20078;-73
2022/05/26 04:38:39;;;;;;;14.25;4.60;;;11.70;99.90;;;;;;5096496;28;20051;-74
2022/05/26 04:41:06;;;;;;;8.85;3.72;;;11.80;99.90;;;;;;5098457;28;20040;-74
2022/05/26 04:43:34;;;;;;;12.35;4.03;;;12.10;99.90;;;;;;5098641;28;20047;-74
2022/05/26 04:46:02;;;;;;;9.88;3.17;;;12.50;99.90;;;;;;5095977;28;20040;-72
2022/05/26 04:48:30;;;;;;;12.13;3.20;;;12.90;99.90;;;;;;5096082;28;20101;-72
2022/05/26 04:50:57;;;;;;;11.00;3.83;;;13.40;99.90;;;;;;5096493;28;20051;-74
2022/05/26 04:53:24;;;;;;;11.23;3.80;;;13.90;99.90;;;;;;5095645;28;20542;-72
2022/05/26 04:55:53;;;;;;;6.63;3.60;;;14.40;99.90;;;;;;5096129;28;20424;-72
2022/05/26 04:58:20;;;;;;;9.25;3.25;;;14.80;99.90;;;;;;5097330;28;20055;-72
2022/05/26 05:00:47;;;;;;;8.60;3.45;;;15.20;99.90;;;;;;5078941;28;20379;-72
2022/05/26 05:03:14;;;;;;;7.68;2.83;;;15.70;99.90;;;;;;5095503;28;20046;-72
2022/05/26 05:05:41;;;;;;;10.98;3.38;;;16.00;99.90;;;;;;5096673;28;20050;-72
2022/05/26 05:08:08;;;;;;;12.35;3.42;;;16.40;99.90;;;;;;5095680;28;20040;-73
2022/05/26 05:10:35;;;;;;;11.20;4.03;;;16.80;99.90;;;;;;5096480;28;20047;-72
2022/05/26 05:13:02;;;;;;;7.38;3.13;;;17.10;99.90;;;;;;5096119;28;20051;-72
2022/05/26 05:15:37;;;;;;;9.52;3.45;;;17.30;99.90;;;;;;5095205;28;20040;-72
2022/05/26 05:18:04;;;;;;;9.13;4.00;;;17.60;99.90;;;;;;5062533;28;20044;-72
2022/05/26 05:20:32;;;;;;;11.27;3.45;;;17.90;99.90;;;;;;5095362;28;20044;-72
2022/05/26 05:23:05;;;;;;;11.40;2.93;;;18.10;99.90;;;;;;5095473;28;20059;-72
2022/05/26 05:25:34;;;;;;;9.20;2.60;;;18.30;99.90;;;;;;5079374;28;20051;-72
2022/05/26 05:28:02;;;;;;;;;;;18.40;99.90;;;;;;5095350;28;20044;-72
2022/05/26 05:30:35;;;;;;;9.18;2.80;;;18.60;99.90;;;;;;5078206;28;19920;-73
2022/05/26 05:33:06;;;;;;;7.25;2.30;;;18.60;99.90;;;;;;5096155;28;20075;-72
2022/05/26 05:35:48;;;;;;;8.77;4.25;;;18.70;99.90;;;;;;5078658;28;20479;-72
2022/05/26 05:38:15;;;;;;;9.15;3.00;;;18.80;99.90;;;;;;5094987;28;20055;-72
2022/05/26 05:40:42;;;;;;;8.75;2.63;;;18.80;99.90;;;;;;5096093;28;20050;-72
2022/05/26 05:43:10;;;;;;;9.77;2.58;;;18.70;99.90;;;;;;5096933;28;20423;-73
2022/05/26 05:45:38;;;;;;;6.72;2.80;;;18.60;99.90;;;;;;5095335;28;20146;-72
2022/05/26 05:48:06;;;;;;;7.60;2.53;;;18.50;99.90;;;;;;5095590;28;20131;-72
2022/05/26 05:50:33;;;;;;;10.30;3.10;;;18.30;99.90;;;;;;5095886;28;20480;-71
2022/05/26 05:53:00;;;;;;;8.32;2.42;;;18.30;99.90;;;;;;5094544;28;20491;-71
2022/05/26 05:55:29;;;;;;;9.90;2.90;;;18.20;99.90;;;;;;5095928;28;20142;-72
2022/05/26 05:57:56;;;;;;;8.65;2.63;;;18.00;99.90;;;;;;5094656;28;20377;-72
2022/05/26 06:00:23;;;;;;;6.05;2.35;;;17.90;99.90;;;;;;5095491;28;20051;-72
2022/05/26 06:02:55;;;;;;;9.13;2.80;;;17.90;99.90;;;;;;5079180;28;20056;-72
2022/05/26 06:05:22;;;;;;;5.40;2.45;;;17.80;99.90;;;;;;5095443;28;20074;-72
2022/05/26 06:07:49;;;;;;;7.78;3.05;;;17.90;99.90;;;;;;5094367;28;20040;-72
2022/05/26 06:10:16;;;;;;;7.82;2.70;;;17.80;99.90;;;;;;5095180;28;20044;-77
2022/05/26 06:12:43;;;;;;;35.22;26.02;;;17.70;99.90;;;;;;5094334;28;20050;-76
2022/05/26 06:15:10;;;;;;;15.90;9.98;;;17.70;99.90;;;;;;5095150;28;20482;-74
2022/05/26 06:17:37;;;;;;;18.10;5.32;;;17.70;99.90;;;;;;5095172;28;20051;-72
2022/05/26 06:20:05;;;;;;;6.38;2.70;;;17.60;99.90;;;;;;5094082;28;20051;-75
2022/05/26 06:22:32;;;;;;;19.15;3.25;;;17.50;99.90;;;;;;5093922;28;20050;-74
2022/05/26 06:25:01;;;;;;;7.65;2.58;;;17.40;99.90;;;;;;5094273;28;20403;-73
2022/05/26 06:30:16;;;;;;;9.43;2.70;;;17.40;99.90;;;;;;5095878;28;20093;-73
2022/05/26 06:38:18;;;;;;;10.25;4.53;;;17.30;99.90;;;;;;5079710;28;20131;-73
2022/05/26 06:40:45;;;;;;;12.52;4.45;;;17.40;99.90;;;;;;5093999;28;20036;-79
2022/05/26 06:43:14;;;;;;;10.80;3.97;;;17.40;99.90;;;;;;5094252;28;20048;-78
2022/05/26 06:45:42;;;;;;;12.43;4.22;;;17.50;99.90;;;;;;5094345;28;20073;-77
2022/05/26 06:48:09;;;;;;;7.15;2.97;;;17.60;99.90;;;;;;5095950;28;20041;-80
2022/05/26 06:50:35;;;;;;;7.43;2.90;;;17.50;99.90;;;;;;5098571;28;20047;-83
2022/05/26 06:53:02;;;;;;;7.78;2.45;;;17.50;99.90;;;;;;5096859;28;20046;-85
2022/05/26 06:55:32;;;;;;;9.98;3.00;;;17.50;99.90;;;;;;5096093;28;20075;-84
2022/05/26 06:57:59;;;;;;;9.43;3.65;;;17.50;99.90;;;;;;5078247;28;20039;-75
2022/05/26 07:00:26;;;;;;;10.27;3.28;;;17.50;99.90;;;;;;5097334;28;20356;-80
2022/05/26 07:02:53;;;;;;;7.72;2.20;;;17.50;99.90;;;;;;5096563;28;20371;-80
2022/05/26 07:05:20;;;;;;;10.57;3.50;;;17.50;99.90;;;;;;5095846;28;20054;-79
2022/05/26 07:07:47;;;;;;;7.15;2.55;;;17.50;99.90;;;;;;5097318;28;20048;-79
2022/05/26 07:10:14;;;;;;;9.18;2.60;;;17.40;99.90;;;;;;5095024;28;20044;-81
2022/05/26 07:12:41;;;;;;;5.35;2.00;;;17.30;99.90;;;;;;5095545;28;20058;-77
2022/05/26 07:15:08;;;;;;;6.10;2.25;;;17.30;99.90;;;;;;5094453;28;20044;-72
2022/05/26 07:17:41;;;;;;;5.63;2.55;;;17.40;99.90;;;;;;5092977;28;20097;-71
2022/05/26 07:20:09;;;;;;;7.53;2.88;;;17.30;99.90;;;;;;5094869;28;20040;-71
2022/05/26 07:22:36;;;;;;;20.40;16.17;;;17.30;99.90;;;;;;5076187;28;20122;-68
2022/05/26 07:25:04;;;;;;;15.48;10.23;;;17.40;99.90;;;;;;5094699;28;20044;-74
2022/05/26 07:27:31;;;;;;;8.70;3.73;;;17.40;99.90;;;;;;5092754;28;20052;-70
2022/05/26 07:29:58;;;;;;;13.48;6.90;;;17.60;99.90;;;;;;5094746;28;20044;-72
2022/05/26 07:32:25;;;;;;;13.30;3.55;;;17.70;99.90;;;;;;5092549;28;20501;-70
2022/05/26 07:34:52;;;;;;;6.57;2.80;;;17.80;99.90;;;;;;5092913;28;20094;-70
2022/05/26 07:42:50;;;;;;;10.25;7.63;;;17.80;99.90;;;;;;5093088;28;20051;-77
2022/05/26 07:45:17;;;;;;;8.48;4.00;;;17.80;99.90;;;;;;5092469;28;20066;-77
2022/05/26 07:47:44;;;;;;;9.18;3.10;;;17.60;99.90;;;;;;5076476;28;20043;-74
2022/05/26 07:50:12;;;;;;;8.95;2.50;;;17.60;99.90;;;;;;5059126;28;20395;-74
2022/05/26 07:52:38;;;;;;;6.22;1.88;;;17.60;99.90;;;;;;5059489;28;20458;-79
2022/05/26 07:55:06;;;;;;;7.55;2.95;;;17.60;99.90;;;;;;5092652;28;20040;-74
2022/05/26 07:57:33;;;;;;;5.78;2.92;;;17.70;99.90;;;;;;5092692;28;20043;-74
2022/05/26 08:00:00;;;;;;;8.55;2.30;;;17.90;99.90;;;;;;5093433;28;20075;-75
2022/05/26 08:02:27;;;;;;;7.80;2.25;;;18.10;99.90;;;;;;5092200;28;20040;-81
2022/05/26 08:04:54;;;;;;;11.80;2.67;;;18.20;99.90;;;;;;5093762;28;20050;-71
2022/05/26 08:07:21;;;;;;;6.63;2.90;;;18.30;99.90;;;;;;5092176;28;20044;-71
2022/05/26 08:09:48;;;;;;;8.77;2.67;;;18.40;99.90;;;;;;5076313;28;20040;-71
2022/05/26 08:12:16;;;;;;;7.93;2.17;;;18.50;99.90;;;;;;5092170;28;20035;-73
2022/05/26 08:14:43;;;;;;;8.35;2.42;;;18.60;99.90;;;;;;5092453;28;20044;-73
2022/05/26 08:17:13;;;;;;;6.72;2.30;;;18.60;99.90;;;;;;5058862;28;20048;-73
2022/05/26 08:19:40;;;;;;;10.98;4.93;;;18.80;99.90;;;;;;5075684;28;20468;-74
2022/05/26 08:22:07;;;;;;;9.52;4.72;;;18.90;99.90;;;;;;5093265;28;20483;-66
2022/05/26 08:24:34;;;;;;;5.57;2.05;;;19.00;99.90;;;;;;5093146;28;20051;-70
2022/05/26 08:27:01;;;;;;;12.27;4.00;;;19.00;99.90;;;;;;5093152;28;20055;-73
2022/05/26 08:29:28;;;;;;;6.00;2.72;;;19.10;99.90;;;;;;5093064;28;20475;-66
2022/05/26 08:31:55;;;;;;;8.88;2.47;;;19.20;99.90;;;;;;5091986;28;20079;-67
2022/05/26 08:34:22;;;;;;;7.60;1.88;;;19.10;99.90;;;;;;5092040;28;20039;-67
2022/05/26 08:36:49;;;;;;;7.85;2.38;;;19.10;99.90;;;;;;5093965;28;20468;-67
2022/05/26 08:39:16;;;;;;;5.85;2.50;;;19.00;99.90;;;;;;5092996;28;20131;-67
2022/05/26 08:41:46;;;;;;;5.90;1.90;;;18.90;99.90;;;;;;5091751;28;20467;-67
2022/05/26 08:44:20;;;;;;;5.70;1.77;;;18.80;99.90;;;;;;5092079;28;20056;-67
2022/05/26 08:46:54;;;;;;;6.63;1.95;;;19.00;99.90;;;;;;5091847;28;20479;-67
2022/05/26 08:49:25;;;;;;;8.00;2.50;;;19.00;99.90;;;;;;5059774;28;20143;-67
2022/05/26 08:51:57;;;;;;;5.72;2.17;;;19.10;99.90;;;;;;5060062;28;20379;-67
2022/05/26 08:54:27;;;;;;;5.93;2.38;;;19.00;99.90;;;;;;5059912;28;20055;-67
2022/05/26 08:56:59;;;;;;;4.03;1.83;;;19.10;99.90;;;;;;5075521;28;20044;-67
2022/05/26 08:59:41;;;;;;;9.57;2.20;;;19.20;99.90;;;;;;5075058;28;20051;-67
2022/05/26 09:02:28;;;;;;;4.63;1.50;;;19.30;99.90;;;;;;5075539;28;20044;-67
2022/05/26 09:05:00;;;;;;;5.53;1.92;;;19.40;99.90;;;;;;5095381;28;20051;-67
2022/05/26 09:13:57;;;;;;;6.90;1.95;;;19.40;99.90;;;;;;5095693;28;20452;-67
2022/05/26 09:16:24;;;;;;;6.32;2.55;;;19.50;99.90;;;;;;5095549;28;20141;-67
2022/05/26 09:19:19;;;;;;;8.60;2.05;;;19.60;99.90;;;;;;5096365;28;20083;-67
2022/05/26 09:21:47;;;;;;;9.18;2.20;;;19.60;99.90;;;;;;5095104;28;20055;-67
2022/05/26 09:24:25;;;;;;;5.03;1.88;;;19.70;99.90;;;;;;5079828;28;20079;-67
2022/05/26 09:27:06;;;;;;;5.95;1.88;;;19.80;99.90;;;;;;5097101;28;20395;-67
2022/05/26 09:29:36;;;;;;;9.48;2.17;;;19.90;99.90;;;;;;5094885;28;20040;-67
2022/05/26 09:32:04;;;;;;;4.97;1.95;;;20.00;99.90;;;;;;5078874;28;20050;-67
2022/05/26 09:35:20;;;;;;;4.03;1.60;;;19.90;99.90;;;;;;5096348;28;20093;-68
2022/05/26 09:37:49;;;;;;;6.18;2.13;;;20.00;99.90;;;;;;5096913;28;20040;-67
2022/05/26 09:40:20;;;;;;;6.35;1.95;;;19.90;99.90;;;;;;5078773;28;20486;-67
2022/05/26 09:43:04;;;;;;;4.63;2.05;;;20.00;99.90;;;;;;5095942;28;20046;-67
2022/05/26 09:45:57;;;;;;;8.00;2.88;;;20.00;99.90;;;;;;5083663;28;20044;-67
2022/05/26 09:48:24;;;;;;;8.68;2.28;;;20.00;99.90;;;;;;5094884;28;20130;-67
2022/05/26 09:50:53;;;;;;;6.93;1.90;;;20.00;99.90;;;;;;5094520;28;20490;-67
2022/05/26 09:53:31;;;;;;;7.03;2.05;;;20.10;99.90;;;;;;5094948;28;20052;-67
2022/05/26 09:55:58;;;;;;;6.25;1.75;;;20.20;99.90;;;;;;5094564;28;20051;-67
2022/05/26 09:58:30;;;;;;;7.80;2.28;;;20.10;99.90;;;;;;5094872;28;20127;-68
2022/05/26 10:01:03;;;;;;;7.22;2.10;;;20.10;99.90;;;;;;5096720;28;20179;-68
2022/05/26 10:03:36;;;;;;;5.25;1.88;;;20.20;99.90;;;;;;5094374;28;20051;-68
2022/05/26 10:06:08;;;;;;;7.18;2.00;;;20.30;99.90;;;;;;5095661;28;20040;-68
2022/05/26 10:08:56;;;;;;;7.03;2.00;;;20.30;99.90;;;;;;5094314;28;20040;-67
2022/05/26 10:11:45;;;;;;;9.02;2.00;;;20.40;99.90;;;;;;5094743;28;20048;-68
2022/05/26 10:14:36;;;;;;;8.25;2.17;;;20.40;99.90;;;;;;5094826;28;20040;-68
2022/05/26 10:17:16;;;;;;;7.53;1.88;;;20.40;99.90;;;;;;5095255;28;20043;-68
2022/05/26 10:20:25;;;;;;;6.47;1.83;;;20.40;99.90;;;;;;5096164;28;20048;-68
2022/05/26 10:23:05;;;;;;;6.70;1.98;;;20.20;99.90;;;;;;5092323;28;20502;-68
2022/05/26 10:25:52;;;;;;;5.70;1.90;;;20.20;99.90;;;;;;5095201;28;20471;-68
2022/05/26 10:28:35;;;;;;;5.05;2.00;;;20.10;99.90;;;;;;5095118;28;20044;-68
2022/05/26 10:31:33;;;;;;;5.47;1.65;;;20.00;99.90;;;;;;5095315;28;20048;-68
2022/05/26 10:34:03;;;;;;;6.10;1.70;;;19.90;99.90;;;;;;5095309;28;20446;-68
2022/05/26 10:36:48;;;;;;;5.75;2.10;;;19.80;99.90;;;;;;5093754;28;20044;-72
2022/05/26 10:39:22;;;;;;;40.33;32.72;;;19.70;99.90;;;;;;5095720;28;20087;-68
2022/05/26 10:41:55;;;;;;;12.07;5.20;;;19.60;99.90;;;;;;5095286;28;20055;-67
2022/05/26 10:44:30;;;;;;;5.63;2.60;;;19.60;99.90;;;;;;5061117;28;20054;-68
2022/05/26 10:47:18;;;;;;;7.22;2.20;;;19.80;99.90;;;;;;5093607;28;20092;-68
2022/05/26 10:49:47;;;;;;;6.05;1.67;;;20.00;99.90;;;;;;5094248;28;20044;-68
2022/05/26 10:52:36;;;;;;;5.57;2.17;;;20.20;99.90;;;;;;5077222;28;20040;-69
2022/05/26 10:55:30;;;;;;;4.97;2.08;;;20.40;99.90;;;;;;5078232;28;20050;-68
2022/05/26 10:58:08;;;;;;;3.72;1.80;;;20.50;99.90;;;;;;5089135;28;20070;-69
2022/05/26 11:00:34;;;;;;;9.40;2.05;;;20.60;99.90;;;;;;5061721;28;20040;-69
2022/05/26 11:03:11;;;;;;;4.13;1.80;;;20.70;99.90;;;;;;5094520;28;20047;-70
2022/05/26 11:05:46;;;;;;;4.82;1.63;;;20.90;99.90;;;;;;5094758;28;20337;-69
2022/05/26 11:08:34;;;;;;;4.80;1.33;;;20.90;99.90;;;;;;5094743;28;20490;-67
2022/05/26 11:11:15;;;;;;;6.78;1.52;;;21.00;99.90;;;;;;5093297;28;20050;-70
2022/05/26 11:13:52;;;;;;;6.97;2.15;;;21.00;99.90;;;;;;5077139;28;20043;-70
2022/05/26 11:19:37;;;;;;;4.38;1.25;;;21.10;99.90;;;;;;5102547;28;20043;-74
2022/05/26 11:22:04;;;;;;;3.08;1.95;;;21.30;99.90;;;;;;5103122;28;20097;-75
2022/05/26 11:24:32;;;;;;;4.82;1.73;;;21.40;99.90;;;;;;5098600;28;20047;-74
2022/05/26 11:27:17;;;;;;;4.05;1.50;;;21.50;99.90;;;;;;5095303;28;20051;-75
2022/05/26 11:29:47;;;;;;;3.42;1.40;;;21.60;99.40;;;;;;5060579;28;20044;-74
2022/05/26 11:36:07;;;;;;;80.10;68.40;;;21.70;99.60;;;;;;5093996;28;20044;-71
2022/05/26 11:38:28;;;;;;;8.90;5.72;;;21.70;98.10;;;;;;5093460;28;20048;-67
2022/05/26 11:41:05;;;;;;;4.72;2.17;;;21.50;98.40;;;;;;5092901;28;20044;-53
2022/05/26 11:43:41;;;;;;;10.80;2.55;;;21.30;99.20;;;;;;5075888;28;20048;-48
2022/05/26 11:46:09;;;;;;;4.65;1.60;;;21.40;99.90;;;;;;5094565;28;20044;-62
2022/05/26 11:48:45;;;;;;;6.63;1.42;;;21.40;99.90;;;;;;5077156;28;20097;-68
2022/05/26 11:51:12;;;;;;;5.25;1.70;;;21.40;98.40;;;;;;5092588;28;20047;-69
2022/05/26 11:53:46;;;;;;;7.25;2.42;;;21.40;99.60;;;;;;5093928;28;20039;-70
2022/05/26 11:56:25;;;;;;;3.92;1.50;;;21.70;99.30;;;;;;5092446;28;20129;-70
2022/05/26 11:59:21;;;;;;;2.03;1.25;;;21.80;99.90;;;;;;5093893;28;20573;-69
2022/05/26 12:02:08;;;;;;;3.15;1.23;;;22.00;99.60;;;;;;5094568;28;20052;-69
2022/05/26 12:04:39;;;;;;;4.15;1.88;;;21.90;99.90;;;;;;5093234;28;20050;-68
2022/05/26 12:07:36;;;;;;;5.03;1.60;;;21.90;99.90;;;;;;5076414;28;20067;-68
2022/05/26 12:10:16;;;;;;;4.13;1.45;;;22.00;99.90;;;;;;5092988;28;20071;-62
2022/05/26 12:12:43;;;;;;;5.50;1.45;;;22.00;98.20;;;;;;5075877;28;20043;-66
2022/05/26 12:15:15;;;;;;;8.90;6.07;;;22.10;99.00;;;;;;5092423;28;20047;-72
2022/05/26 12:17:51;;;;;;;15.82;13.75;;;22.10;97.00;;;;;;5092432;28;20449;-71
2022/05/26 12:20:18;;;;;;;5.28;2.60;;;22.10;98.40;;;;;;5093730;28;20051;-71
2022/05/26 12:22:51;;;;;;;2.63;1.30;;;22.10;96.40;;;;;;5093783;28;20463;-71
2022/05/26 12:25:35;;;;;;;2.30;1.20;;;22.20;97.10;;;;;;5094331;28;20123;-76
2022/05/26 12:28:11;;;;;;;4.22;1.13;;;22.30;97.10;;;;;;5077090;28;20523;-70
2022/05/26 12:30:44;;;;;;;2.08;1.23;;;22.20;95.20;;;;;;5094241;28;20122;-70
2022/05/26 12:33:21;;;;;;;2.38;1.13;;;22.10;96.30;;;;;;5094020;28;20040;-70
2022/05/26 12:36:09;;;;;;;3.17;1.08;;;22.10;95.20;;;;;;5093451;28;20506;-71
2022/05/26 12:39:01;;;;;;;2.97;1.10;;;22.30;97.10;;;;;;5095735;28;20040;-70
2022/05/26 12:41:51;;;;;;;1.85;0.98;;;22.40;94.40;;;;;;5098006;28;20051;-70
2022/05/26 12:44:47;;;;;;;3.35;1.17;;;22.30;95.50;;;;;;5095896;28;20043;-70
2022/05/26 12:47:34;;;;;;;6.50;1.60;;;22.20;93.80;;;;;;5096645;28;20071;-70
2022/05/26 12:50:03;;;;;;;2.97;1.00;;;22.20;94.60;;;;;;5096927;28;20130;-70
2022/05/26 12:52:42;;;;;;;5.23;1.00;;;22.20;94.40;;;;;;5096933;28;20497;-70
2022/05/26 12:55:33;;;;;;;3.35;1.20;;;22.10;94.30;;;;;;5096563;28;20287;-71
2022/05/26 12:58:20;;;;;;;2.40;1.00;;;21.90;94.70;;;;;;5096287;28;20452;-73
2022/05/26 13:01:10;;;;;;;2.97;1.52;;;21.90;95.00;;;;;;5096850;28;20048;-74
2022/05/26 13:03:43;;;;;;;5.30;1.50;;;22.00;96.50;;;;;;5097117;28;20127;-68
2022/05/26 13:06:26;;;;;;;4.15;1.10;;;21.90;96.30;;;;;;5097587;28;20101;-71
2022/05/26 13:09:12;;;;;;;3.03;1.15;;;21.80;96.00;;;;;;5095998;28;20048;-71
2022/05/26 13:11:59;;;;;;;3.00;1.30;;;21.80;96.10;;;;;;5095330;28;20054;-76
2022/05/26 13:14:35;;;;;;;4.45;1.30;;;21.80;95.60;;;;;;5096096;28;20071;-69
2022/05/26 13:17:13;;;;;;;11.68;8.02;;;21.80;95.80;;;;;;5078693;28;20048;-68
2022/05/26 13:19:48;;;;;;;8.88;7.45;;;21.80;96.20;;;;;;5079608;28;20044;-68
2022/05/26 13:22:36;;;;;;;5.07;2.50;;;22.00;96.90;;;;;;5078939;28;20464;-69
2022/05/26 13:25:10;;;;;;;5.33;2.40;;;22.20;95.70;;;;;;5095491;28;20495;-69
2022/05/26 13:28:04;;;;;;;5.35;2.28;;;22.20;95.70;;;;;;5095900;28;20097;-68
2022/05/26 13:33:45;;;;;;;4.03;1.98;;;22.40;95.00;;;;;;5081983;28;20459;-72
2022/05/26 13:36:40;;;;;;;3.27;1.60;;;22.50;95.50;;;;;;5096233;28;20125;-76
2022/05/26 13:39:18;;;;;;;3.60;1.20;;;22.60;94.40;;;;;;5095258;28;20277;-71
2022/05/26 13:41:46;;;;;;;3.00;1.38;;;22.50;94.70;;;;;;5094585;28;20056;-74
2022/05/26 13:44:18;;;;;;;4.53;1.63;;;22.60;94.50;;;;;;5078731;28;20051;-73
2022/05/26 13:46:47;;;;;;;4.60;2.03;;;22.80;95.10;;;;;;5095305;28;20051;-71
2022/05/26 13:49:23;;;;;;;3.38;1.50;;;22.80;93.30;;;;;;5077998;28;20036;-70
2022/05/26 13:51:51;;;;;;;2.20;1.13;;;22.80;92.60;;;;;;5095872;28;20490;-73